sensor_id;sensor_type;location;lat;lon;timestamp;temperature;humidity
62573;DHT22;48626;51.678;5.806;2023-03-31T00:02:18;11.50;99.90
62573;DHT22;48626;51.678;5.806;2023-03-31T00:04:46;11.50;99.90
62573;DHT22;48626;51.678;5.806;2023-03-31T00:07:17;11.60;99.90
62573;DHT22;48626;51.678;5.806;2023-03-31T00:09:47;11.60;99.90
62573;DHT22;48626;51.678;5.806;2023-03-31T00:12:15;11.60;99.90
62573;DHT22;48626;51.678;5.806;2023-03-31T00:14:42;11.60;99.90
62573;DHT22;48626;51.678;5.806;2023-03-31T00:17:09;11.60;99.90
62573;DHT22;48626;51.678;5.806;2023-03-31T00:19:35;11.60;99.90
62573;DHT22;48626;51.678;5.806;2023-03-31T00:22:01;11.70;99.90
62573;DHT22;48626;51.678;5.806;2023-03-31T00:24:28;11.70;99.90
62573;DHT22;48626;51.678;5.806;2023-03-31T00:26:58;11.70;99.90
62573;DHT22;48626;51.678;5.806;2023-03-31T00:29:24;11.70;99.90
62573;DHT22;48626;51.678;5.806;2023-03-31T00:31:50;11.70;99.90
62573;DHT22;48626;51.678;5.806;2023-03-31T00:34:16;11.70;99.90
62573;DHT22;48626;51.678;5.806;2023-03-31T00:36:41;11.70;99.90
62573;DHT22;48626;51.678;5.806;2023-03-31T00:39:16;11.70;99.90
62573;DHT22;48626;51.678;5.806;2023-03-31T00:41:42;11.60;99.90
62573;DHT22;48626;51.678;5.806;2023-03-31T00:44:21;11.50;99.90
62573;DHT22;48626;51.678;5.806;2023-03-31T00:46:54;11.50;99.90
62573;DHT22;48626;51.678;5.806;2023-03-31T00:49:42;11.40;99.90
62573;DHT22;48626;51.678;5.806;2023-03-31T00:54:58;11.30;99.90
62573;DHT22;48626;51.678;5.806;2023-03-31T00:57:26;11.20;99.90
62573;DHT22;48626;51.678;5.806;2023-03-31T00:59:58;11.20;99.90
62573;DHT22;48626;51.678;5.806;2023-03-31T01:02:26;11.20;99.90
62573;DHT22;48626;51.678;5.806;2023-03-31T01:04:58;11.20;99.90
62573;DHT22;48626;51.678;5.806;2023-03-31T01:07:34;11.20;99.90
62573;DHT22;48626;51.678;5.806;2023-03-31T01:10:03;11.20;99.90
62573;DHT22;48626;51.678;5.806;2023-03-31T01:12:31;11.30;99.90
62573;DHT22;48626;51.678;5.806;2023-03-31T01:14:58;11.30;99.90
62573;DHT22;48626;51.678;5.806;2023-03-31T01:17:24;11.30;99.90
62573;DHT22;48626;51.678;5.806;2023-03-31T01:28:29;11.30;99.90
62573;DHT22;48626;51.678;5.806;2023-03-31T01:37:01;11.40;99.90
62573;DHT22;48626;51.678;5.806;2023-03-31T01:42:33;11.40;99.90
62573;DHT22;48626;51.678;5.806;2023-03-31T01:45:07;11.40;99.90
62573;DHT22;48626;51.678;5.806;2023-03-31T01:47:55;11.40;99.90
62573;DHT22;48626;51.678;5.806;2023-03-31T01:51:30;11.40;99.90
62573;DHT22;48626;51.678;5.806;2023-03-31T01:54:01;11.40;99.90
62573;DHT22;48626;51.678;5.806;2023-03-31T01:56:40;11.40;99.90
62573;DHT22;48626;51.678;5.806;2023-03-31T01:59:28;11.50;99.90
62573;DHT22;48626;51.678;5.806;2023-03-31T02:02:01;11.40;99.90
62573;DHT22;48626;51.678;5.806;2023-03-31T02:04:29;11.40;99.90
62573;DHT22;48626;51.678;5.806;2023-03-31T02:07:06;11.40;99.90
62573;DHT22;48626;51.678;5.806;2023-03-31T02:09:41;11.40;99.90
62573;DHT22;48626;51.678;5.806;2023-03-31T02:12:10;11.40;99.90
62573;DHT22;48626;51.678;5.806;2023-03-31T02:14:39;11.40;99.90
62573;DHT22;48626;51.678;5.806;2023-03-31T02:17:10;11.40;99.90
62573;DHT22;48626;51.678;5.806;2023-03-31T02:19:40;11.40;99.90
62573;DHT22;48626;51.678;5.806;2023-03-31T02:22:08;11.40;99.90
62573;DHT22;48626;51.678;5.806;2023-03-31T02:24:35;11.40;99.90
62573;DHT22;48626;51.678;5.806;2023-03-31T02:29:49;11.40;99.90
62573;DHT22;48626;51.678;5.806;2023-03-31T02:32:22;11.40;99.90
62573;DHT22;48626;51.678;5.806;2023-03-31T02:34:49;11.50;99.90
62573;DHT22;48626;51.678;5.806;2023-03-31T02:37:15;11.50;99.90
62573;DHT22;48626;51.678;5.806;2023-03-31T02:39:43;11.50;99.90
62573;DHT22;48626;51.678;5.806;2023-03-31T02:42:10;11.50;99.90
62573;DHT22;48626;51.678;5.806;2023-03-31T02:44:37;11.50;99.90
62573;DHT22;48626;51.678;5.806;2023-03-31T02:47:10;11.50;99.90
62573;DHT22;48626;51.678;5.806;2023-03-31T02:49:39;11.50;99.90
62573;DHT22;48626;51.678;5.806;2023-03-31T02:52:33;11.50;99.90
62573;DHT22;48626;51.678;5.806;2023-03-31T02:58:48;11.50;99.90
62573;DHT22;48626;51.678;5.806;2023-03-31T03:04:25;11.50;99.90
62573;DHT22;48626;51.678;5.806;2023-03-31T03:07:03;11.50;99.90
62573;DHT22;48626;51.678;5.806;2023-03-31T03:12:51;11.50;99.90
62573;DHT22;48626;51.678;5.806;2023-03-31T03:15:46;11.50;99.90
62573;DHT22;48626;51.678;5.806;2023-03-31T03:18:13;11.50;99.90
62573;DHT22;48626;51.678;5.806;2023-03-31T03:20:40;11.50;99.90
62573;DHT22;48626;51.678;5.806;2023-03-31T03:23:07;11.50;99.90
62573;DHT22;48626;51.678;5.806;2023-03-31T03:25:32;11.50;99.90
62573;DHT22;48626;51.678;5.806;2023-03-31T03:27:58;11.50;99.90
62573;DHT22;48626;51.678;5.806;2023-03-31T03:30:24;11.50;99.90
62573;DHT22;48626;51.678;5.806;2023-03-31T03:32:50;11.50;99.90
62573;DHT22;48626;51.678;5.806;2023-03-31T03:35:16;11.50;99.90
62573;DHT22;48626;51.678;5.806;2023-03-31T03:37:42;11.50;99.90
62573;DHT22;48626;51.678;5.806;2023-03-31T03:40:08;11.50;99.90
62573;DHT22;48626;51.678;5.806;2023-03-31T03:42:35;11.50;99.90
62573;DHT22;48626;51.678;5.806;2023-03-31T03:45:00;11.50;99.90
62573;DHT22;48626;51.678;5.806;2023-03-31T03:47:27;11.50;99.90
62573;DHT22;48626;51.678;5.806;2023-03-31T03:49:53;11.50;99.90
62573;DHT22;48626;51.678;5.806;2023-03-31T03:52:18;11.50;99.90
62573;DHT22;48626;51.678;5.806;2023-03-31T03:54:45;11.50;99.90
62573;DHT22;48626;51.678;5.806;2023-03-31T03:57:11;11.50;99.90
62573;DHT22;48626;51.678;5.806;2023-03-31T03:59:36;11.40;99.90
62573;DHT22;48626;51.678;5.806;2023-03-31T04:02:02;11.40;99.90
62573;DHT22;48626;51.678;5.806;2023-03-31T04:04:28;11.30;99.90
62573;DHT22;48626;51.678;5.806;2023-03-31T04:06:53;11.30;99.90
62573;DHT22;48626;51.678;5.806;2023-03-31T04:09:19;11.20;99.90
62573;DHT22;48626;51.678;5.806;2023-03-31T04:11:45;11.20;99.90
62573;DHT22;48626;51.678;5.806;2023-03-31T04:14:11;11.20;99.90
62573;DHT22;48626;51.678;5.806;2023-03-31T04:16:36;11.20;99.90
62573;DHT22;48626;51.678;5.806;2023-03-31T04:19:02;11.20;99.90
62573;DHT22;48626;51.678;5.806;2023-03-31T04:21:30;11.10;99.90
62573;DHT22;48626;51.678;5.806;2023-03-31T04:23:59;11.00;99.90
62573;DHT22;48626;51.678;5.806;2023-03-31T04:26:33;11.10;99.90
62573;DHT22;48626;51.678;5.806;2023-03-31T04:29:17;11.10;99.90
62573;DHT22;48626;51.678;5.806;2023-03-31T04:31:46;11.10;99.90
62573;DHT22;48626;51.678;5.806;2023-03-31T04:34:14;11.10;99.90
62573;DHT22;48626;51.678;5.806;2023-03-31T04:36:41;11.10;99.90
62573;DHT22;48626;51.678;5.806;2023-03-31T04:39:12;11.20;99.90
62573;DHT22;48626;51.678;5.806;2023-03-31T04:41:38;11.10;99.90
62573;DHT22;48626;51.678;5.806;2023-03-31T04:44:03;11.10;99.90
62573;DHT22;48626;51.678;5.806;2023-03-31T04:46:30;11.20;99.90
62573;DHT22;48626;51.678;5.806;2023-03-31T04:48:56;11.20;99.90
62573;DHT22;48626;51.678;5.806;2023-03-31T04:51:23;11.20;99.90
62573;DHT22;48626;51.678;5.806;2023-03-31T04:53:49;11.20;99.90
62573;DHT22;48626;51.678;5.806;2023-03-31T04:56:14;11.20;99.90
62573;DHT22;48626;51.678;5.806;2023-03-31T04:58:40;11.20;99.90
62573;DHT22;48626;51.678;5.806;2023-03-31T05:01:06;11.20;99.90
62573;DHT22;48626;51.678;5.806;2023-03-31T05:03:32;11.20;99.90
62573;DHT22;48626;51.678;5.806;2023-03-31T05:05:58;11.20;99.90
62573;DHT22;48626;51.678;5.806;2023-03-31T05:08:24;11.20;99.90
62573;DHT22;48626;51.678;5.806;2023-03-31T05:10:51;11.20;99.90
62573;DHT22;48626;51.678;5.806;2023-03-31T05:13:17;11.20;99.90
62573;DHT22;48626;51.678;5.806;2023-03-31T05:15:43;11.20;99.90
62573;DHT22;48626;51.678;5.806;2023-03-31T05:18:09;11.20;99.90
62573;DHT22;48626;51.678;5.806;2023-03-31T05:20:35;11.20;99.90
62573;DHT22;48626;51.678;5.806;2023-03-31T05:23:01;11.10;99.90
62573;DHT22;48626;51.678;5.806;2023-03-31T05:25:27;11.10;99.90
62573;DHT22;48626;51.678;5.806;2023-03-31T05:27:57;11.10;99.90
62573;DHT22;48626;51.678;5.806;2023-03-31T05:30:24;11.10;99.90
62573;DHT22;48626;51.678;5.806;2023-03-31T05:32:51;11.00;99.90
62573;DHT22;48626;51.678;5.806;2023-03-31T05:35:17;11.00;99.90
62573;DHT22;48626;51.678;5.806;2023-03-31T05:37:43;11.00;99.90
62573;DHT22;48626;51.678;5.806;2023-03-31T05:40:09;10.90;99.90
62573;DHT22;48626;51.678;5.806;2023-03-31T05:42:36;10.90;99.90
62573;DHT22;48626;51.678;5.806;2023-03-31T05:45:01;10.90;99.90
62573;DHT22;48626;51.678;5.806;2023-03-31T05:47:27;10.90;99.90
62573;DHT22;48626;51.678;5.806;2023-03-31T05:49:53;10.90;99.90
62573;DHT22;48626;51.678;5.806;2023-03-31T05:52:18;10.90;99.90
62573;DHT22;48626;51.678;5.806;2023-03-31T05:54:44;11.00;99.90
62573;DHT22;48626;51.678;5.806;2023-03-31T05:57:10;11.00;99.90
62573;DHT22;48626;51.678;5.806;2023-03-31T05:59:36;11.10;99.90
62573;DHT22;48626;51.678;5.806;2023-03-31T06:02:03;11.10;99.90
62573;DHT22;48626;51.678;5.806;2023-03-31T06:04:29;11.10;99.90
62573;DHT22;48626;51.678;5.806;2023-03-31T06:06:57;11.10;99.90
62573;DHT22;48626;51.678;5.806;2023-03-31T06:09:23;11.10;99.90
62573;DHT22;48626;51.678;5.806;2023-03-31T06:11:49;11.20;99.90
62573;DHT22;48626;51.678;5.806;2023-03-31T06:14:14;11.20;99.90
62573;DHT22;48626;51.678;5.806;2023-03-31T06:16:40;11.30;99.90
62573;DHT22;48626;51.678;5.806;2023-03-31T06:19:06;11.30;99.90
62573;DHT22;48626;51.678;5.806;2023-03-31T06:21:32;11.40;99.90
62573;DHT22;48626;51.678;5.806;2023-03-31T06:23:57;11.40;99.90
62573;DHT22;48626;51.678;5.806;2023-03-31T06:26:24;11.40;99.90
62573;DHT22;48626;51.678;5.806;2023-03-31T06:28:50;11.40;99.90
62573;DHT22;48626;51.678;5.806;2023-03-31T06:31:18;11.40;99.90
62573;DHT22;48626;51.678;5.806;2023-03-31T06:33:44;11.40;99.90
62573;DHT22;48626;51.678;5.806;2023-03-31T06:36:13;11.30;99.90
62573;DHT22;48626;51.678;5.806;2023-03-31T06:38:38;11.30;99.90
62573;DHT22;48626;51.678;5.806;2023-03-31T06:41:05;11.30;99.90
62573;DHT22;48626;51.678;5.806;2023-03-31T06:43:32;11.20;99.90
62573;DHT22;48626;51.678;5.806;2023-03-31T06:45:57;11.20;99.90
62573;DHT22;48626;51.678;5.806;2023-03-31T06:48:24;11.20;99.90
62573;DHT22;48626;51.678;5.806;2023-03-31T06:50:51;11.20;99.90
62573;DHT22;48626;51.678;5.806;2023-03-31T06:53:17;11.20;99.90
62573;DHT22;48626;51.678;5.806;2023-03-31T06:55:42;11.10;99.90
62573;DHT22;48626;51.678;5.806;2023-03-31T06:58:08;11.20;99.90
62573;DHT22;48626;51.678;5.806;2023-03-31T07:00:34;11.20;99.90
62573;DHT22;48626;51.678;5.806;2023-03-31T07:02:59;11.20;99.90
62573;DHT22;48626;51.678;5.806;2023-03-31T07:05:26;11.10;99.90
62573;DHT22;48626;51.678;5.806;2023-03-31T07:07:57;11.10;99.90
62573;DHT22;48626;51.678;5.806;2023-03-31T07:10:23;11.20;99.90
62573;DHT22;48626;51.678;5.806;2023-03-31T07:12:49;11.20;99.90
62573;DHT22;48626;51.678;5.806;2023-03-31T07:15:15;11.20;99.90
62573;DHT22;48626;51.678;5.806;2023-03-31T07:17:41;11.20;99.90
62573;DHT22;48626;51.678;5.806;2023-03-31T07:20:08;11.10;99.90
62573;DHT22;48626;51.678;5.806;2023-03-31T07:22:37;11.10;99.90
62573;DHT22;48626;51.678;5.806;2023-03-31T07:25:03;11.00;99.90
62573;DHT22;48626;51.678;5.806;2023-03-31T07:27:29;11.10;99.90
62573;DHT22;48626;51.678;5.806;2023-03-31T07:29:54;11.10;99.90
62573;DHT22;48626;51.678;5.806;2023-03-31T07:32:20;11.10;99.90
62573;DHT22;48626;51.678;5.806;2023-03-31T07:34:47;11.10;99.90
62573;DHT22;48626;51.678;5.806;2023-03-31T07:37:13;11.10;99.90
62573;DHT22;48626;51.678;5.806;2023-03-31T07:39:39;11.10;99.90
62573;DHT22;48626;51.678;5.806;2023-03-31T07:42:04;11.20;99.90
62573;DHT22;48626;51.678;5.806;2023-03-31T07:44:33;11.20;99.90
62573;DHT22;48626;51.678;5.806;2023-03-31T07:46:58;11.30;99.90
62573;DHT22;48626;51.678;5.806;2023-03-31T07:49:29;11.30;99.90
62573;DHT22;48626;51.678;5.806;2023-03-31T07:51:55;11.40;99.90
62573;DHT22;48626;51.678;5.806;2023-03-31T07:54:21;11.40;99.90
62573;DHT22;48626;51.678;5.806;2023-03-31T07:56:47;11.50;99.90
62573;DHT22;48626;51.678;5.806;2023-03-31T07:59:12;11.40;99.90
62573;DHT22;48626;51.678;5.806;2023-03-31T08:01:38;11.50;99.90
62573;DHT22;48626;51.678;5.806;2023-03-31T08:04:04;11.50;99.90
62573;DHT22;48626;51.678;5.806;2023-03-31T08:06:30;11.50;99.90
62573;DHT22;48626;51.678;5.806;2023-03-31T08:08:56;11.50;99.90
62573;DHT22;48626;51.678;5.806;2023-03-31T08:11:23;11.50;99.90
62573;DHT22;48626;51.678;5.806;2023-03-31T08:13:48;11.50;99.90
62573;DHT22;48626;51.678;5.806;2023-03-31T08:16:14;11.50;99.90
62573;DHT22;48626;51.678;5.806;2023-03-31T08:18:40;11.50;99.90
62573;DHT22;48626;51.678;5.806;2023-03-31T08:21:06;11.60;99.90
62573;DHT22;48626;51.678;5.806;2023-03-31T08:23:34;11.70;99.90
62573;DHT22;48626;51.678;5.806;2023-03-31T08:26:11;11.80;99.90
62573;DHT22;48626;51.678;5.806;2023-03-31T08:28:37;11.90;99.90
62573;DHT22;48626;51.678;5.806;2023-03-31T08:31:04;12.10;99.90
62573;DHT22;48626;51.678;5.806;2023-03-31T08:33:30;12.10;99.90
62573;DHT22;48626;51.678;5.806;2023-03-31T08:35:56;12.30;99.90
62573;DHT22;48626;51.678;5.806;2023-03-31T08:38:21;12.40;99.90
62573;DHT22;48626;51.678;5.806;2023-03-31T08:40:47;12.50;99.90
62573;DHT22;48626;51.678;5.806;2023-03-31T08:43:24;12.50;99.90
62573;DHT22;48626;51.678;5.806;2023-03-31T08:45:51;12.50;99.90
62573;DHT22;48626;51.678;5.806;2023-03-31T08:48:38;12.60;99.90
62573;DHT22;48626;51.678;5.806;2023-03-31T08:51:43;12.70;99.90
62573;DHT22;48626;51.678;5.806;2023-03-31T08:54:20;12.70;99.90
62573;DHT22;48626;51.678;5.806;2023-03-31T08:56:50;12.70;99.90
62573;DHT22;48626;51.678;5.806;2023-03-31T08:59:49;12.70;99.90
62573;DHT22;48626;51.678;5.806;2023-03-31T09:02:40;12.80;99.90
62573;DHT22;48626;51.678;5.806;2023-03-31T09:10:57;13.00;99.90
62573;DHT22;48626;51.678;5.806;2023-03-31T09:20:05;13.20;99.90
62573;DHT22;48626;51.678;5.806;2023-03-31T09:22:40;13.20;99.90
62573;DHT22;48626;51.678;5.806;2023-03-31T09:25:18;13.30;99.90
62573;DHT22;48626;51.678;5.806;2023-03-31T09:27:45;13.40;99.90
62573;DHT22;48626;51.678;5.806;2023-03-31T09:32:40;13.50;99.90
62573;DHT22;48626;51.678;5.806;2023-03-31T09:35:19;13.60;99.90
62573;DHT22;48626;51.678;5.806;2023-03-31T09:37:46;13.70;99.90
62573;DHT22;48626;51.678;5.806;2023-03-31T09:40:32;13.80;99.90
62573;DHT22;48626;51.678;5.806;2023-03-31T09:43:02;13.90;99.90
62573;DHT22;48626;51.678;5.806;2023-03-31T09:45:29;14.00;99.90
62573;DHT22;48626;51.678;5.806;2023-03-31T09:48:03;14.20;99.90
62573;DHT22;48626;51.678;5.806;2023-03-31T09:50:35;14.30;99.90
62573;DHT22;48626;51.678;5.806;2023-03-31T09:53:13;14.40;99.90
62573;DHT22;48626;51.678;5.806;2023-03-31T09:55:44;14.50;99.90
62573;DHT22;48626;51.678;5.806;2023-03-31T09:58:16;14.60;99.90
62573;DHT22;48626;51.678;5.806;2023-03-31T10:01:16;14.60;99.90
62573;DHT22;48626;51.678;5.806;2023-03-31T10:03:49;14.70;99.90
62573;DHT22;48626;51.678;5.806;2023-03-31T10:06:15;14.60;99.90
62573;DHT22;48626;51.678;5.806;2023-03-31T10:08:56;14.50;99.90
62573;DHT22;48626;51.678;5.806;2023-03-31T10:11:23;14.40;99.90
62573;DHT22;48626;51.678;5.806;2023-03-31T10:14:09;14.40;99.90
62573;DHT22;48626;51.678;5.806;2023-03-31T10:19:27;14.30;99.90
62573;DHT22;48626;51.678;5.806;2023-03-31T10:22:02;14.40;99.90
62573;DHT22;48626;51.678;5.806;2023-03-31T10:24:38;14.40;99.90
62573;DHT22;48626;51.678;5.806;2023-03-31T10:27:06;14.40;99.90
62573;DHT22;48626;51.678;5.806;2023-03-31T10:29:38;14.50;99.90
62573;DHT22;48626;51.678;5.806;2023-03-31T10:32:25;14.50;99.90
62573;DHT22;48626;51.678;5.806;2023-03-31T10:34:54;14.50;99.90
62573;DHT22;48626;51.678;5.806;2023-03-31T10:37:25;14.60;99.90
62573;DHT22;48626;51.678;5.806;2023-03-31T10:42:32;14.70;99.90
62573;DHT22;48626;51.678;5.806;2023-03-31T10:45:35;14.70;99.90
62573;DHT22;48626;51.678;5.806;2023-03-31T10:48:01;14.70;99.90
62573;DHT22;48626;51.678;5.806;2023-03-31T10:50:30;14.70;99.90
62573;DHT22;48626;51.678;5.806;2023-03-31T10:55:37;14.80;99.90
62573;DHT22;48626;51.678;5.806;2023-03-31T11:03:55;15.20;99.90
62573;DHT22;48626;51.678;5.806;2023-03-31T11:12:35;15.20;99.90
62573;DHT22;48626;51.678;5.806;2023-03-31T11:20:47;15.20;99.90
62573;DHT22;48626;51.678;5.806;2023-03-31T11:23:41;15.40;99.90
62573;DHT22;48626;51.678;5.806;2023-03-31T11:31:44;16.00;99.90
62573;DHT22;48626;51.678;5.806;2023-03-31T11:34:20;15.90;99.90
62573;DHT22;48626;51.678;5.806;2023-03-31T11:42:57;15.20;99.90
62573;DHT22;48626;51.678;5.806;2023-03-31T11:45:26;14.70;99.90
62573;DHT22;48626;51.678;5.806;2023-03-31T11:48:00;14.50;99.90
62573;DHT22;48626;51.678;5.806;2023-03-31T11:50:34;14.60;99.90
62573;DHT22;48626;51.678;5.806;2023-03-31T11:53:10;14.80;99.90
62573;DHT22;48626;51.678;5.806;2023-03-31T11:55:38;15.00;99.90
62573;DHT22;48626;51.678;5.806;2023-03-31T11:58:14;15.30;99.90
62573;DHT22;48626;51.678;5.806;2023-03-31T12:00:46;15.70;99.90
62573;DHT22;48626;51.678;5.806;2023-03-31T12:03:14;15.90;99.90
62573;DHT22;48626;51.678;5.806;2023-03-31T12:06:04;15.90;99.90
62573;DHT22;48626;51.678;5.806;2023-03-31T12:08:48;16.00;99.90
62573;DHT22;48626;51.678;5.806;2023-03-31T12:14:31;15.60;99.90
62573;DHT22;48626;51.678;5.806;2023-03-31T12:17:09;15.50;99.90
62573;DHT22;48626;51.678;5.806;2023-03-31T12:22:25;15.40;99.90
62573;DHT22;48626;51.678;5.806;2023-03-31T12:24:52;15.50;99.90
62573;DHT22;48626;51.678;5.806;2023-03-31T12:30:02;15.90;99.90
62573;DHT22;48626;51.678;5.806;2023-03-31T12:32:31;15.90;99.90
62573;DHT22;48626;51.678;5.806;2023-03-31T12:35:44;15.80;99.90
62573;DHT22;48626;51.678;5.806;2023-03-31T12:41:00;15.60;99.90
62573;DHT22;48626;51.678;5.806;2023-03-31T12:49:51;15.40;99.90
62573;DHT22;48626;51.678;5.806;2023-03-31T12:52:43;15.50;99.90
62573;DHT22;48626;51.678;5.806;2023-03-31T12:55:37;15.50;99.90
62573;DHT22;48626;51.678;5.806;2023-03-31T13:01:07;16.10;99.90
62573;DHT22;48626;51.678;5.806;2023-03-31T13:06:01;16.40;99.90
62573;DHT22;48626;51.678;5.806;2023-03-31T13:11:39;16.10;99.90
62573;DHT22;48626;51.678;5.806;2023-03-31T13:14:25;16.10;99.90
62573;DHT22;48626;51.678;5.806;2023-03-31T13:17:11;16.10;99.90
62573;DHT22;48626;51.678;5.806;2023-03-31T13:19:39;15.90;99.90
62573;DHT22;48626;51.678;5.806;2023-03-31T13:22:05;15.80;99.90
62573;DHT22;48626;51.678;5.806;2023-03-31T13:24:32;15.70;99.90
62573;DHT22;48626;51.678;5.806;2023-03-31T13:27:28;15.60;99.90
62573;DHT22;48626;51.678;5.806;2023-03-31T13:29:54;15.60;99.90
62573;DHT22;48626;51.678;5.806;2023-03-31T13:32:22;15.40;99.90
62573;DHT22;48626;51.678;5.806;2023-03-31T13:34:53;15.20;99.90
62573;DHT22;48626;51.678;5.806;2023-03-31T13:43:43;14.90;99.90
62573;DHT22;48626;51.678;5.806;2023-03-31T13:46:48;14.90;99.90
62573;DHT22;48626;51.678;5.806;2023-03-31T13:52:02;15.20;99.90
62573;DHT22;48626;51.678;5.806;2023-03-31T13:54:58;15.60;99.90
62573;DHT22;48626;51.678;5.806;2023-03-31T14:00:24;16.10;99.90
62573;DHT22;48626;51.678;5.806;2023-03-31T14:08:02;16.20;99.90
62573;DHT22;48626;51.678;5.806;2023-03-31T14:10:33;16.10;99.90
62573;DHT22;48626;51.678;5.806;2023-03-31T14:15:50;15.70;99.90
62573;DHT22;48626;51.678;5.806;2023-03-31T14:26:37;15.20;99.90
62573;DHT22;48626;51.678;5.806;2023-03-31T14:29:21;14.80;99.90
62573;DHT22;48626;51.678;5.806;2023-03-31T14:34:59;14.50;99.90
62573;DHT22;48626;51.678;5.806;2023-03-31T14:37:28;14.40;99.90
62573;DHT22;48626;51.678;5.806;2023-03-31T14:39:56;14.40;99.90
62573;DHT22;48626;51.678;5.806;2023-03-31T14:42:37;14.40;99.90
62573;DHT22;48626;51.678;5.806;2023-03-31T14:45:10;14.50;99.90
62573;DHT22;48626;51.678;5.806;2023-03-31T14:47:39;14.60;99.90
62573;DHT22;48626;51.678;5.806;2023-03-31T14:50:13;14.80;99.90
62573;DHT22;48626;51.678;5.806;2023-03-31T14:52:51;14.80;99.90
62573;DHT22;48626;51.678;5.806;2023-03-31T14:55:23;14.70;99.90
62573;DHT22;48626;51.678;5.806;2023-03-31T14:57:51;14.70;99.90
62573;DHT22;48626;51.678;5.806;2023-03-31T15:00:30;14.70;99.90
62573;DHT22;48626;51.678;5.806;2023-03-31T15:02:59;14.70;99.90
62573;DHT22;48626;51.678;5.806;2023-03-31T15:05:31;14.70;99.90
62573;DHT22;48626;51.678;5.806;2023-03-31T15:08:00;14.80;99.90
62573;DHT22;48626;51.678;5.806;2023-03-31T15:10:32;14.70;99.90
62573;DHT22;48626;51.678;5.806;2023-03-31T15:12:58;14.80;99.90
62573;DHT22;48626;51.678;5.806;2023-03-31T15:15:27;14.80;99.90
62573;DHT22;48626;51.678;5.806;2023-03-31T15:17:53;14.80;99.90
62573;DHT22;48626;51.678;5.806;2023-03-31T15:20:29;14.70;99.90
62573;DHT22;48626;51.678;5.806;2023-03-31T15:22:57;14.60;99.90
62573;DHT22;48626;51.678;5.806;2023-03-31T15:25:32;14.50;99.90
62573;DHT22;48626;51.678;5.806;2023-03-31T15:28:04;14.40;99.90
62573;DHT22;48626;51.678;5.806;2023-03-31T15:30:31;14.30;99.90
62573;DHT22;48626;51.678;5.806;2023-03-31T15:32:57;14.10;99.90
62573;DHT22;48626;51.678;5.806;2023-03-31T15:35:32;14.10;99.90
62573;DHT22;48626;51.678;5.806;2023-03-31T15:37:59;14.00;99.90
62573;DHT22;48626;51.678;5.806;2023-03-31T15:40:37;13.90;99.90
62573;DHT22;48626;51.678;5.806;2023-03-31T15:43:13;13.90;99.90
62573;DHT22;48626;51.678;5.806;2023-03-31T15:45:54;13.90;99.90
62573;DHT22;48626;51.678;5.806;2023-03-31T15:48:33;13.90;99.90
62573;DHT22;48626;51.678;5.806;2023-03-31T15:51:21;13.90;99.90
62573;DHT22;48626;51.678;5.806;2023-03-31T15:53:51;13.90;99.90
62573;DHT22;48626;51.678;5.806;2023-03-31T15:56:40;13.90;99.90
62573;DHT22;48626;51.678;5.806;2023-03-31T15:59:27;14.00;99.90
62573;DHT22;48626;51.678;5.806;2023-03-31T16:01:54;14.00;99.90
62573;DHT22;48626;51.678;5.806;2023-03-31T16:04:22;13.90;99.90
62573;DHT22;48626;51.678;5.806;2023-03-31T16:06:53;13.90;99.90
62573;DHT22;48626;51.678;5.806;2023-03-31T16:09:40;13.80;99.90
62573;DHT22;48626;51.678;5.806;2023-03-31T16:12:34;13.70;99.90
62573;DHT22;48626;51.678;5.806;2023-03-31T16:15:09;13.60;99.90
62573;DHT22;48626;51.678;5.806;2023-03-31T16:17:51;13.60;99.90
62573;DHT22;48626;51.678;5.806;2023-03-31T16:20:25;13.50;99.90
62573;DHT22;48626;51.678;5.806;2023-03-31T16:22:55;13.50;99.90
62573;DHT22;48626;51.678;5.806;2023-03-31T16:25:25;13.40;99.90
62573;DHT22;48626;51.678;5.806;2023-03-31T16:27:57;13.40;99.90
62573;DHT22;48626;51.678;5.806;2023-03-31T16:30:43;13.30;99.90
62573;DHT22;48626;51.678;5.806;2023-03-31T16:33:10;13.30;99.90
62573;DHT22;48626;51.678;5.806;2023-03-31T16:35:44;13.20;99.90
62573;DHT22;48626;51.678;5.806;2023-03-31T16:38:13;13.30;99.90
62573;DHT22;48626;51.678;5.806;2023-03-31T16:40:43;13.20;99.90
62573;DHT22;48626;51.678;5.806;2023-03-31T16:43:13;13.20;99.90
62573;DHT22;48626;51.678;5.806;2023-03-31T16:45:41;13.10;99.90
62573;DHT22;48626;51.678;5.806;2023-03-31T16:48:07;13.10;99.90
62573;DHT22;48626;51.678;5.806;2023-03-31T16:50:33;13.10;99.90
62573;DHT22;48626;51.678;5.806;2023-03-31T16:52:59;13.00;99.90
62573;DHT22;48626;51.678;5.806;2023-03-31T16:55:26;13.00;99.90
62573;DHT22;48626;51.678;5.806;2023-03-31T16:57:52;13.00;99.90
62573;DHT22;48626;51.678;5.806;2023-03-31T17:00:19;13.00;99.90
62573;DHT22;48626;51.678;5.806;2023-03-31T17:02:44;12.90;99.90
62573;DHT22;48626;51.678;5.806;2023-03-31T17:05:11;12.90;99.90
62573;DHT22;48626;51.678;5.806;2023-03-31T17:07:38;12.80;99.90
62573;DHT22;48626;51.678;5.806;2023-03-31T17:10:04;12.80;99.90
62573;DHT22;48626;51.678;5.806;2023-03-31T17:12:31;12.70;99.90
62573;DHT22;48626;51.678;5.806;2023-03-31T17:14:56;12.70;99.90
62573;DHT22;48626;51.678;5.806;2023-03-31T17:17:22;12.70;99.90
62573;DHT22;48626;51.678;5.806;2023-03-31T17:19:48;12.70;99.90
62573;DHT22;48626;51.678;5.806;2023-03-31T17:22:13;12.70;99.90
62573;DHT22;48626;51.678;5.806;2023-03-31T17:24:39;12.70;99.90
62573;DHT22;48626;51.678;5.806;2023-03-31T17:27:05;12.70;99.90
62573;DHT22;48626;51.678;5.806;2023-03-31T17:29:31;12.70;99.90
62573;DHT22;48626;51.678;5.806;2023-03-31T17:31:56;12.60;99.90
62573;DHT22;48626;51.678;5.806;2023-03-31T17:34:22;12.60;99.90
62573;DHT22;48626;51.678;5.806;2023-03-31T17:36:48;12.50;99.90
62573;DHT22;48626;51.678;5.806;2023-03-31T17:39:15;12.40;99.90
62573;DHT22;48626;51.678;5.806;2023-03-31T17:41:41;12.40;99.90
62573;DHT22;48626;51.678;5.806;2023-03-31T17:44:07;12.50;99.90
62573;DHT22;48626;51.678;5.806;2023-03-31T17:46:33;12.40;99.90
62573;DHT22;48626;51.678;5.806;2023-03-31T17:49:00;12.40;99.90
62573;DHT22;48626;51.678;5.806;2023-03-31T17:51:25;12.40;99.90
62573;DHT22;48626;51.678;5.806;2023-03-31T17:53:52;12.40;99.90
62573;DHT22;48626;51.678;5.806;2023-03-31T17:56:18;12.40;99.90
62573;DHT22;48626;51.678;5.806;2023-03-31T17:58:44;12.30;99.90
62573;DHT22;48626;51.678;5.806;2023-03-31T18:01:11;12.30;99.90
62573;DHT22;48626;51.678;5.806;2023-03-31T18:03:37;12.20;99.90
62573;DHT22;48626;51.678;5.806;2023-03-31T18:06:08;12.20;99.90
62573;DHT22;48626;51.678;5.806;2023-03-31T18:08:36;12.20;99.90
62573;DHT22;48626;51.678;5.806;2023-03-31T18:11:03;12.20;99.90
62573;DHT22;48626;51.678;5.806;2023-03-31T18:13:30;12.20;99.90
62573;DHT22;48626;51.678;5.806;2023-03-31T18:15:56;12.20;99.90